»·PEaware :: N714LF KCMA-KAVX

N714LF :: KCMA-KAVX

FLIGHT INFORMATION

Flight Status: Arrived
Operator: Privately registered:
United States
More flights under this callsign
Pilot: David R. (15748)
Aircraft: CESSNA 172 SKYHAWK
(C172)
More flights by this aircraft type
Origin: KCMA Camarillo
United States
Destination: KAVX Catalina
United States
More flights between these airports :: More routes between these airports
Route: ++SXC
File this flight plan on PilotEdge
Remarks: VOR-A vectors to final
Altitude:
(Current/Filed)
5,000ft
Speed:
(Current/Filed)
100kts
Departed: 26-Dec-17 12:32 PM
Arrived: 26-Dec-17 01:26 PM
Distance/Time
Traveled:
59nm/0:54
Distance/Time
To Go:
Arrived

Flight Plot

Page will automatically refresh every two minutes.

Flight plan parsing failed; only flown route is shown


Map Options




Map Legend


Flown Route
Filed Route
Departure Airport
Arrival Airport
Navaid (VOR, NDB)
Fix

Horizontal Profiles

Position Reports

Time Latitude Longitude Heading Altitude Ground
Speed
26-Dec-17 12:18 34.210919 -119.095851 180 78ft 0kts
26-Dec-17 12:19 34.210919 -119.095851 180 78ft 0kts
26-Dec-17 12:20 34.210961 -119.095655 2 78ft 0kts
26-Dec-17 12:21 34.210961 -119.095655 2 78ft 0kts
26-Dec-17 12:22 34.210961 -119.095655 2 78ft 0kts
26-Dec-17 12:23 34.210961 -119.095655 2 78ft 0kts
26-Dec-17 12:24 34.210962 -119.095655 2 78ft 0kts
26-Dec-17 12:25 34.210962 -119.095655 2 78ft 0kts
26-Dec-17 12:26 34.210962 -119.095655 2 78ft 0kts
26-Dec-17 12:27 34.210963 -119.095655 2 78ft 0kts
26-Dec-17 12:28 34.210963 -119.095655 2 78ft 0kts
26-Dec-17 12:29 34.210963 -119.095655 2 78ft 0kts
26-Dec-17 12:30 34.211499 -119.095009 318 78ft 0kts
26-Dec-17 12:31 34.212599 -119.097273 332 78ft 8kts
26-Dec-17 12:32 34.211484 -119.095259 93 78ft 14kts
26-Dec-17 12:33 34.211391 -119.089563 90 78ft 19kts
26-Dec-17 12:34 34.211692 -119.084695 13 78ft 7kts
26-Dec-17 12:35 34.212906 -119.084614 358 78ft 0kts
26-Dec-17 12:36 34.212906 -119.084614 358 78ft 0kts
26-Dec-17 12:37 34.213240 -119.084621 358 78ft 14kts
26-Dec-17 12:38 34.213937 -119.105556 270 514ft 84kts
26-Dec-17 12:39 34.220905 -119.134907 287 1250ft 94kts
26-Dec-17 12:40 34.229187 -119.165660 287 1914ft 96kts
26-Dec-17 12:41 34.237372 -119.196054 287 2604ft 93kts
26-Dec-17 12:42 34.235474 -119.220216 161 3278ft 90kts
26-Dec-17 12:43 34.214400 -119.205454 138 3988ft 87kts
26-Dec-17 12:44 34.199043 -119.183201 128 4675ft 84kts
26-Dec-17 12:45 34.183106 -119.159460 128 5028ft 107kts
26-Dec-17 12:46 34.163094 -119.129653 128 5000ft 116kts
26-Dec-17 12:47 34.142566 -119.099085 128 5000ft 117kts
26-Dec-17 12:48 34.122103 -119.068622 128 5000ft 117kts
26-Dec-17 12:49 34.098459 -119.044301 177 5012ft 115kts
26-Dec-17 12:50 34.066034 -119.042284 176 4999ft 117kts
26-Dec-17 12:51 34.033561 -119.040242 176 5000ft 117kts
26-Dec-17 12:52 34.000973 -119.037974 175 5000ft 117kts
26-Dec-17 12:53 33.968571 -119.034576 174 5000ft 117kts
26-Dec-17 12:54 33.936177 -119.031173 174 5000ft 117kts
26-Dec-17 12:55 33.903654 -119.027759 174 5000ft 117kts
26-Dec-17 12:56 33.871250 -119.024358 174 5000ft 117kts
26-Dec-17 12:57 33.838732 -119.020946 174 5000ft 117kts
26-Dec-17 12:58 33.813878 -118.999113 129 5001ft 117kts
26-Dec-17 12:59 33.792940 -118.969148 129 4999ft 117kts
26-Dec-17 13:00 33.772016 -118.939210 129 5000ft 117kts
26-Dec-17 13:01 33.751028 -118.909188 129 5000ft 117kts
26-Dec-17 13:02 33.730095 -118.879251 129 5000ft 117kts
26-Dec-17 13:03 33.708405 -118.849977 131 5000ft 117kts
26-Dec-17 13:04 33.686607 -118.820940 131 5000ft 117kts
26-Dec-17 13:05 33.664747 -118.791828 131 5000ft 117kts
26-Dec-17 13:06 33.648070 -118.758847 112 5000ft 117kts
26-Dec-17 13:07 33.635207 -118.722532 112 4870ft 125kts
26-Dec-17 13:08 33.620915 -118.682190 112 4299ft 133kts
26-Dec-17 13:09 33.606364 -118.641121 112 3719ft 134kts
26-Dec-17 13:10 33.591754 -118.599892 112 3129ft 135kts
26-Dec-17 13:11 33.577839 -118.560633 112 2996ft 121kts
26-Dec-17 13:12 33.551762 -118.545493 182 3003ft 119kts
26-Dec-17 13:13 33.518379 -118.547596 182 2999ft 119kts
26-Dec-17 13:14 33.485120 -118.549690 182 3000ft 119kts
26-Dec-17 13:15 33.475925 -118.525073 82 3006ft 119kts
26-Dec-17 13:16 33.480299 -118.479003 96 3093ft 113kts
26-Dec-17 13:17 33.454750 -118.473400 183 3666ft 98kts
26-Dec-17 13:18 33.431900 -118.475318 183 4017ft 106kts
26-Dec-17 13:19 33.394411 -118.478380 182 4000ft 118kts
26-Dec-17 13:20 33.361501 -118.480456 182 4000ft 118kts
26-Dec-17 13:21 33.333978 -118.482187 182 4000ft 118kts
26-Dec-17 13:22 33.295735 -118.484591 182 3996ft 115kts
26-Dec-17 13:23 33.269403 -118.485533 162 3993ft 113kts
26-Dec-17 13:24 33.269143 -118.451260 76 4001ft 113kts
26-Dec-17 13:25 33.289817 -118.426760 27 4000ft 111kts
26-Dec-17 13:26 33.318106 -118.412065 5 3982ft 112kts
26-Dec-17 13:27 33.348484 -118.418636 348 3768ft 110kts
26-Dec-17 13:28 33.379016 -118.421080 3 3184ft 111kts
26-Dec-17 13:29 33.401296 -118.402440 77 2839ft 80kts
26-Dec-17 13:30 33.411796 -118.386193 308 2931ft 77kts
26-Dec-17 13:31 33.408606 -118.409656 230 1773ft 72kts
26-Dec-17 13:32 33.403887 -118.417184 138 1605ft 4kts
26-Dec-17 13:33 33.403285 -118.415533 55 1605ft 0kts
26-Dec-17 13:34 33.403285 -118.415533 55 1605ft 0kts
26-Dec-17 13:35 33.403285 -118.415533 55 1605ft 0kts
26-Dec-17 13:36 33.403285 -118.415533 55 1605ft 0kts
26-Dec-17 13:37 33.403285 -118.415533 55 1605ft 0kts
26-Dec-17 13:38 33.403285 -118.415533 55 1605ft 0kts
26-Dec-17 13:39 33.403285 -118.415533 55 1605ft 0kts
26-Dec-17 13:40 33.403285 -118.415533 55 1605ft 0kts
26-Dec-17 13:41 33.403285 -118.415533 55 1605ft 0kts
26-Dec-17 13:42 33.403285 -118.415533 55 1605ft 0kts
26-Dec-17 13:43 33.403285 -118.415533 55 1605ft 0kts
26-Dec-17 13:44 33.403285 -118.415533 55 1605ft 0kts
26-Dec-17 13:45 33.403285 -118.415533 55 1605ft 0kts
26-Dec-17 13:46 33.403285 -118.415533 55 1605ft 0kts

Navigation Log

Ident Type
Flight plan parsing failed, navigation log unavailable